Decoded Metar for UKLL (LVOV in UKRAINE) (IATA:LWO) | Meteo·Mobile Aviation Weather
aviador You're here:

UKLL Decoded Metar

LVOV in UKRAINE
Report Time2019-01-23 07:00:00
UTC Time2019-01-23 07:25:37
Flight Rules ifr IFR
Wind090° at 6 kt
W.Decomp.*RWY 13: 4.4 kt HW 4.1 kt LCW
W.Rank090° ranks 21
Current wind is below 090° avg. (6.7)
Visibility8000 m
Phenomena:Light Snow
Clouds:Overcast 009 Hf
Expected CloudBase > 800 ft AGL from Temp-Dew spread
Ceiling900 ft
Temp-7°C (ISA -20)
Dew Point-9°C (86% RH)
AAT-12.1°C
QNH1006 hPa
Density Alt-1,109 ft
Elevation1,066 ft
Report Wrong Elevation
Raw Report
UKLL 230700Z 09003MPS 060V120 8000 -SN OVC009 M07/M09 Q1006
R13/410350 NOSIG=

Extra information for UKLL:More info

Metar Taf Metar & Taf Last 4 Metars F.Rules Stats Wind Profile Meteogram Temp Stats Airport Information Weather charts Add Link Nearby VenuesMetar ALERT Operation Metar Decoded Social comments